Time;durP1;ratioP1;P1;durP2;ratioP2;P2;SDS_P1;SDS_P2;PMS_P1;PMS_P2;Temp;Humidity;BMP_temperature;BMP_pressure;BME280_temperature;BME280_humidity;BME280_pressure;Samples;Min_cycle;Max_cycle;Signal;HPM_P1;HPM_P2
2021/04/29 00:02:15;;;;;;;10.18;6.68;;;;;;;;;;5069056;28;20027;-77
2021/04/29 00:06:42;;;;;;;9.70;6.18;;;;;;;;;;5110607;27;20430;-76
2021/04/29 00:09:08;;;;;;;13.40;7.38;;;;;;;;;;5110579;28;20015;-77
2021/04/29 00:11:35;;;;;;;15.50;8.38;;;;;;;;;;5110196;28;20028;-76
2021/04/29 00:14:44;;;;;;;11.68;7.97;;;;;;;;;;5070154;28;20446;-75
2021/04/29 00:19:02;;;;;;;14.40;7.70;;;;;;;;;;5110661;27;20438;-75
2021/04/29 00:21:28;;;;;;;10.18;6.47;;;;;;;;;;5110651;28;20027;-75
2021/04/29 00:23:54;;;;;;;14.48;8.18;;;;;;;;;;5110079;28;20027;-75
2021/04/29 00:27:16;;;;;;;16.02;9.05;;;;;;;;;;5110618;27;20437;-76
2021/04/29 00:29:42;;;;;;;13.63;8.27;;;;;;;;;;5110636;28;20039;-76
2021/04/29 00:32:08;;;;;;;13.95;8.13;;;;;;;;;;5109051;28;20031;-77
2021/04/29 00:34:34;;;;;;;14.02;7.78;;;;;;;;;;5110777;28;20038;-76
2021/04/29 00:37:01;;;;;;;11.10;6.85;;;;;;;;;;5110366;28;20112;-76
2021/04/29 00:39:27;;;;;;;18.75;8.60;;;;;;;;;;5110069;28;20103;-76
2021/04/29 00:41:53;;;;;;;16.05;9.20;;;;;;;;;;5110303;28;20542;-76
2021/04/29 00:44:19;;;;;;;14.20;8.20;;;;;;;;;;5110254;28;20396;-76
2021/04/29 00:46:45;;;;;;;14.40;7.93;;;;;;;;;;5109871;28;20059;-74
2021/04/29 00:49:11;;;;;;;12.55;6.78;;;;;;;;;;5110308;28;20024;-76
2021/04/29 00:51:38;;;;;;;10.70;6.55;;;;;;;;;;5109955;28;20383;-75
2021/04/29 00:54:04;;;;;;;17.95;8.02;;;;;;;;;;5110379;28;20103;-76
2021/04/29 00:56:30;;;;;;;11.93;6.25;;;;;;;;;;5109151;28;20023;-76
2021/04/29 00:58:56;;;;;;;11.43;7.03;;;;;;;;;;5109651;28;20526;-76
2021/04/29 01:01:24;;;;;;;10.88;6.82;;;;;;;;;;5110341;28;20039;-76
2021/04/29 01:04:02;;;;;;;10.77;6.60;;;;;;;;;;5108755;28;20047;-75
2021/04/29 01:06:31;;;;;;;11.48;7.25;;;;;;;;;;5109435;28;20476;-75
2021/04/29 01:09:08;;;;;;;11.82;6.97;;;;;;;;;;5109755;28;20019;-77
2021/04/29 01:11:34;;;;;;;13.60;7.60;;;;;;;;;;5109741;28;20091;-76
2021/04/29 01:15:08;;;;;;;8.82;5.55;;;;;;;;;;5110788;27;20787;-75
2021/04/29 01:17:36;;;;;;;12.07;6.75;;;;;;;;;;5110532;28;20049;-75
2021/04/29 01:20:37;;;;;;;10.77;5.90;;;;;;;;;;5110357;28;20484;-75
2021/04/29 01:23:03;;;;;;;11.07;5.85;;;;;;;;;;5047570;28;20053;-75
2021/04/29 01:25:31;;;;;;;9.98;6.00;;;;;;;;;;5097789;28;20032;-75
2021/04/29 01:27:58;;;;;;;9.90;5.07;;;;;;;;;;5110020;28;20424;-75
2021/04/29 01:30:24;;;;;;;11.20;7.80;;;;;;;;;;5110336;28;20048;-76
2021/04/29 01:32:51;;;;;;;14.15;6.03;;;;;;;;;;5110415;28;20027;-75
2021/04/29 01:35:17;;;;;;;21.08;10.15;;;;;;;;;;5110011;28;20051;-76
2021/04/29 01:37:43;;;;;;;21.67;10.35;;;;;;;;;;5110143;28;20023;-75
2021/04/29 01:40:10;;;;;;;26.08;11.05;;;;;;;;;;5110155;28;20020;-76
2021/04/29 01:42:37;;;;;;;24.40;10.43;;;;;;;;;;5108358;28;20036;-75
2021/04/29 01:45:04;;;;;;;18.80;9.40;;;;;;;;;;5110039;28;20015;-76
2021/04/29 01:47:32;;;;;;;15.20;8.80;;;;;;;;;;5108594;28;20484;-75
2021/04/29 01:49:59;;;;;;;15.18;7.30;;;;;;;;;;5109622;28;20027;-76
2021/04/29 01:52:25;;;;;;;11.23;7.00;;;;;;;;;;5111075;28;20020;-77
2021/04/29 01:54:51;;;;;;;12.23;7.13;;;;;;;;;;5111003;28;20046;-76
2021/04/29 01:57:18;;;;;;;14.70;8.85;;;;;;;;;;5112297;28;20020;-77
2021/04/29 01:59:45;;;;;;;15.70;9.10;;;;;;;;;;5115356;28;20457;-75
2021/04/29 02:02:11;;;;;;;13.60;8.38;;;;;;;;;;5110973;28;20027;-76
2021/04/29 02:04:37;;;;;;;13.45;6.38;;;;;;;;;;5110092;28;20439;-74
2021/04/29 02:07:04;;;;;;;13.88;7.88;;;;;;;;;;5111277;28;20027;-76
2021/04/29 02:09:30;;;;;;;11.13;6.63;;;;;;;;;;5109368;28;20016;-76
2021/04/29 02:11:58;;;;;;;15.13;7.50;;;;;;;;;;5109677;28;20081;-76
2021/04/29 02:14:28;;;;;;;11.48;6.82;;;;;;;;;;5108040;28;20100;-76
2021/04/29 02:16:57;;;;;;;10.10;5.63;;;;;;;;;;5107870;28;20431;-76
2021/04/29 02:19:25;;;;;;;11.48;5.82;;;;;;;;;;5109513;28;20031;-75
2021/04/29 02:21:51;;;;;;;11.00;6.20;;;;;;;;;;5109539;28;20460;-75
2021/04/29 02:24:18;;;;;;;11.43;6.68;;;;;;;;;;5108040;28;20020;-76
2021/04/29 02:26:44;;;;;;;12.52;6.18;;;;;;;;;;5095352;28;20107;-75
2021/04/29 02:29:11;;;;;;;13.90;7.30;;;;;;;;;;5095550;28;20020;-75
2021/04/29 02:31:37;;;;;;;15.45;8.80;;;;;;;;;;5093964;28;20051;-75
2021/04/29 02:34:04;;;;;;;13.98;7.88;;;;;;;;;;5094457;28;20040;-75
2021/04/29 02:36:32;;;;;;;14.25;7.75;;;;;;;;;;5094301;28;20024;-76
2021/04/29 02:38:58;;;;;;;15.25;7.93;;;;;;;;;;5095190;28;20028;-75
2021/04/29 02:41:25;;;;;;;23.73;10.27;;;;;;;;;;5095454;28;20491;-76
2021/04/29 02:43:52;;;;;;;15.63;7.95;;;;;;;;;;5095408;28;20023;-75
2021/04/29 02:46:19;;;;;;;13.27;7.70;;;;;;;;;;5094823;28;20495;-76
2021/04/29 02:48:45;;;;;;;11.85;7.47;;;;;;;;;;5093945;28;20028;-75
2021/04/29 02:51:12;;;;;;;15.43;7.20;;;;;;;;;;5094791;28;20048;-76
2021/04/29 02:53:41;;;;;;;16.70;8.98;;;;;;;;;;5095357;28;20056;-76
2021/04/29 02:56:07;;;;;;;13.23;7.68;;;;;;;;;;5095346;28;20374;-77
2021/04/29 02:58:43;;;;;;;16.17;7.47;;;;;;;;;;5094889;28;20093;-76
2021/04/29 03:01:11;;;;;;;14.80;7.47;;;;;;;;;;5094004;28;20202;-76
2021/04/29 03:03:37;;;;;;;13.70;6.07;;;;;;;;;;5095022;28;20020;-75
2021/04/29 03:06:04;;;;;;;13.65;6.13;;;;;;;;;;5094615;28;20550;-76
2021/04/29 03:08:30;;;;;;;9.52;6.47;;;;;;;;;;5094964;28;20058;-76
2021/04/29 03:10:56;;;;;;;10.38;5.43;;;;;;;;;;5095058;28;20242;-76
2021/04/29 03:13:22;;;;;;;13.88;6.55;;;;;;;;;;5094750;28;20139;-77
2021/04/29 03:15:49;;;;;;;14.57;7.43;;;;;;;;;;5093473;28;20032;-75
2021/04/29 03:18:15;;;;;;;10.05;6.18;;;;;;;;;;5094762;28;20427;-77
2021/04/29 03:20:42;;;;;;;12.00;6.50;;;;;;;;;;5094502;28;20043;-76
2021/04/29 03:23:08;;;;;;;12.75;6.70;;;;;;;;;;5094623;28;20082;-76
2021/04/29 03:25:34;;;;;;;10.50;6.38;;;;;;;;;;5093160;28;20433;-76
2021/04/29 03:28:00;;;;;;;10.85;6.13;;;;;;;;;;5094095;28;20035;-77
2021/04/29 03:30:26;;;;;;;11.18;6.88;;;;;;;;;;5093416;28;20020;-76
2021/04/29 03:32:53;;;;;;;13.45;8.55;;;;;;;;;;5094450;28;20507;-77
2021/04/29 03:35:19;;;;;;;12.40;7.25;;;;;;;;;;5093854;28;20048;-77
2021/04/29 03:37:45;;;;;;;15.45;8.13;;;;;;;;;;5093284;28;20388;-77
2021/04/29 03:40:12;;;;;;;15.05;8.90;;;;;;;;;;5094258;28;20476;-78
2021/04/29 03:42:38;;;;;;;14.57;9.80;;;;;;;;;;5094645;28;20031;-77
2021/04/29 03:45:05;;;;;;;19.20;10.18;;;;;;;;;;5092923;28;20375;-77
2021/04/29 03:47:31;;;;;;;19.17;8.88;;;;;;;;;;5092412;28;20103;-76
2021/04/29 03:49:58;;;;;;;17.33;8.60;;;;;;;;;;5094162;28;20057;-77
2021/04/29 03:52:24;;;;;;;16.77;10.73;;;;;;;;;;5094228;28;20016;-78
2021/04/29 03:54:50;;;;;;;12.45;8.52;;;;;;;;;;5093571;28;20032;-77
2021/04/29 03:57:16;;;;;;;12.38;7.18;;;;;;;;;;5094136;28;20025;-78
2021/04/29 03:59:42;;;;;;;12.77;7.55;;;;;;;;;;5092731;28;20081;-77
2021/04/29 04:02:10;;;;;;;19.25;10.35;;;;;;;;;;5093539;28;20028;-77
2021/04/29 04:04:36;;;;;;;15.65;8.45;;;;;;;;;;5100368;28;20019;-77
2021/04/29 04:07:03;;;;;;;17.00;9.70;;;;;;;;;;5098074;28;20094;-77
2021/04/29 04:09:29;;;;;;;19.55;9.60;;;;;;;;;;5099278;28;20024;-77
2021/04/29 04:11:55;;;;;;;16.48;8.15;;;;;;;;;;5096771;28;20024;-77
2021/04/29 04:14:21;;;;;;;15.60;9.07;;;;;;;;;;5093431;28;20408;-77
2021/04/29 04:16:47;;;;;;;14.73;7.28;;;;;;;;;;5093219;28;20095;-76
2021/04/29 04:19:13;;;;;;;16.17;8.52;;;;;;;;;;5093552;28;20039;-77
2021/04/29 04:21:40;;;;;;;14.77;8.70;;;;;;;;;;5093466;28;20027;-76
2021/04/29 04:24:06;;;;;;;15.57;9.23;;;;;;;;;;5093178;28;20411;-76
2021/04/29 04:26:32;;;;;;;20.67;9.95;;;;;;;;;;5092044;28;20533;-77
2021/04/29 04:28:58;;;;;;;15.05;9.57;;;;;;;;;;5093345;28;20429;-77
2021/04/29 04:31:25;;;;;;;18.05;10.73;;;;;;;;;;5091863;28;20070;-76
2021/04/29 04:33:51;;;;;;;16.75;10.93;;;;;;;;;;5091914;28;20024;-77
2021/04/29 04:36:18;;;;;;;16.63;10.15;;;;;;;;;;5093232;28;20437;-77
2021/04/29 04:38:44;;;;;;;16.67;11.07;;;;;;;;;;5092889;28;20024;-76
2021/04/29 04:41:10;;;;;;;14.68;10.02;;;;;;;;;;5093260;28;20079;-76
2021/04/29 04:43:37;;;;;;;15.13;8.82;;;;;;;;;;5092821;28;20452;-77
2021/04/29 04:46:03;;;;;;;12.60;7.55;;;;;;;;;;5093146;28;20032;-76
2021/04/29 04:48:29;;;;;;;20.55;9.05;;;;;;;;;;5093281;28;20020;-76
2021/04/29 04:50:55;;;;;;;14.35;8.13;;;;;;;;;;5091255;28;20055;-76
2021/04/29 04:53:22;;;;;;;15.38;7.25;;;;;;;;;;5091542;28;20056;-76
2021/04/29 04:55:50;;;;;;;12.65;7.22;;;;;;;;;;5092873;28;20122;-76
2021/04/29 04:58:17;;;;;;;10.93;6.30;;;;;;;;;;5085555;28;20024;-76
2021/04/29 05:00:43;;;;;;;17.77;6.85;;;;;;;;;;5110421;28;20032;-74
2021/04/29 05:03:10;;;;;;;12.43;8.25;;;;;;;;;;5112974;28;20390;-78
2021/04/29 05:05:36;;;;;;;14.77;8.68;;;;;;;;;;5111596;28;20035;-73
2021/04/29 05:08:03;;;;;;;14.43;7.45;;;;;;;;;;5087965;28;20115;-71
2021/04/29 05:10:30;;;;;;;16.10;8.00;;;;;;;;;;5095114;28;20031;-82
2021/04/29 05:13:45;;;;;;;9.80;6.10;;;;;;;;;;5097837;27;20449;-80
2021/04/29 05:17:42;;;;;;;13.68;7.53;;;;;;;;;;5110227;27;20392;-78
2021/04/29 05:21:59;;;;;;;10.52;6.72;;;;;;;;;;5109787;27;20937;-83
2021/04/29 05:24:35;;;;;;;8.75;5.80;;;;;;;;;;5068827;28;20441;-80
2021/04/29 05:27:47;;;;;;;11.40;6.72;;;;;;;;;;5108389;27;20434;-76
2021/04/29 05:30:14;;;;;;;14.85;8.13;;;;;;;;;;5107342;28;20105;-81
2021/04/29 05:32:40;;;;;;;11.73;6.50;;;;;;;;;;5106126;28;20035;-79
2021/04/29 05:35:19;;;;;;;14.68;7.65;;;;;;;;;;5107640;27;20388;-77
2021/04/29 05:37:46;;;;;;;12.48;7.68;;;;;;;;;;5107828;28;20050;-79
2021/04/29 05:40:12;;;;;;;17.38;8.90;;;;;;;;;;5130482;28;20023;-78
2021/04/29 05:42:38;;;;;;;14.25;6.90;;;;;;;;;;5121019;28;20019;-77
2021/04/29 05:45:05;;;;;;;9.40;5.78;;;;;;;;;;5109963;28;20020;-78
2021/04/29 05:49:37;;;;;;;14.32;7.90;;;;;;;;;;5109651;27;20393;-80
2021/04/29 05:52:04;;;;;;;11.60;7.75;;;;;;;;;;5111469;28;20023;-78
2021/04/29 05:54:30;;;;;;;14.18;7.32;;;;;;;;;;5107883;28;20115;-78
2021/04/29 05:56:56;;;;;;;15.70;7.32;;;;;;;;;;5110168;28;20526;-77
2021/04/29 05:59:35;;;;;;;16.38;7.53;;;;;;;;;;5110023;27;20873;-76
2021/04/29 06:02:01;;;;;;;17.70;8.35;;;;;;;;;;5108669;28;20372;-75
2021/04/29 06:04:53;;;;;;;11.40;6.68;;;;;;;;;;5069586;28;20778;-76
2021/04/29 06:09:18;;;;;;;13.68;7.05;;;;;;;;;;5088555;28;20321;-74
2021/04/29 06:12:14;;;;;;;13.38;8.55;;;;;;;;;;5050594;28;20389;-81
2021/04/29 06:14:41;;;;;;;14.85;7.05;;;;;;;;;;5047072;28;20036;-79
2021/04/29 06:17:26;;;;;;;14.23;7.10;;;;;;;;;;5111014;27;20385;-80
2021/04/29 06:19:53;;;;;;;14.65;8.30;;;;;;;;;;5112217;28;20079;-81
2021/04/29 06:25:58;;;;;;;13.30;8.65;;;;;;;;;;5172500;27;20111;-79
2021/04/29 06:28:25;;;;;;;17.67;8.50;;;;;;;;;;5150532;27;20676;-75
2021/04/29 06:30:53;;;;;;;22.27;10.82;;;;;;;;;;5151255;27;20027;-80
2021/04/29 06:33:22;;;;;;;20.38;11.35;;;;;;;;;;5152268;27;20019;-81
2021/04/29 06:35:49;;;;;;;19.15;9.38;;;;;;;;;;5148883;27;20103;-75
2021/04/29 06:38:15;;;;;;;17.88;10.07;;;;;;;;;;5149608;27;20019;-79
2021/04/29 06:41:44;;;;;;;16.85;9.68;;;;;;;;;;5064523;28;20417;-72
2021/04/29 06:46:55;;;;;;;17.02;10.15;;;;;;;;;;5107363;27;20396;-72
2021/04/29 06:51:45;;;;;;;16.13;8.23;;;;;;;;;;5107314;27;20357;-76
2021/04/29 06:54:11;;;;;;;17.42;8.73;;;;;;;;;;5101432;28;20111;-80
2021/04/29 06:58:17;;;;;;;14.63;8.35;;;;;;;;;;5102427;27;20877;-80
2021/04/29 07:00:46;;;;;;;14.02;6.85;;;;;;;;;;5109021;27;20028;-78
2021/04/29 07:03:13;;;;;;;15.40;7.72;;;;;;;;;;5087624;28;20097;-79
2021/04/29 07:07:38;;;;;;;13.38;7.72;;;;;;;;;;5110954;27;20653;-80
2021/04/29 07:10:04;;;;;;;10.90;6.38;;;;;;;;;;5104744;28;20035;-80
2021/04/29 07:13:26;;;;;;;10.05;6.60;;;;;;;;;;5066702;28;20795;-78
2021/04/29 07:16:06;;;;;;;14.68;6.10;;;;;;;;;;5107517;27;20413;-78
2021/04/29 07:21:03;;;;;;;9.38;5.20;;;;;;;;;;5110279;27;20400;-79
2021/04/29 07:25:37;;;;;;;13.35;6.65;;;;;;;;;;5065687;28;20449;-76
2021/04/29 07:30:15;;;;;;;13.52;6.00;;;;;;;;;;5108334;27;20412;-80
2021/04/29 07:33:30;;;;;;;10.73;5.50;;;;;;;;;;5065355;28;20392;-77
2021/04/29 07:35:57;;;;;;;12.23;5.13;;;;;;;;;;5066270;28;20067;-75
2021/04/29 07:38:23;;;;;;;16.08;6.78;;;;;;;;;;5065847;28;20435;-76
2021/04/29 07:41:19;;;;;;;14.20;5.22;;;;;;;;;;5050439;28;20488;-82
2021/04/29 07:45:47;;;;;;;11.15;4.45;;;;;;;;;;5069853;28;20793;-78
2021/04/29 07:49:17;;;;;;;10.38;4.28;;;;;;;;;;5166911;27;20326;-79
2021/04/29 07:51:43;;;;;;;9.63;4.97;;;;;;;;;;5131952;27;20031;-76
2021/04/29 07:54:13;;;;;;;8.90;4.07;;;;;;;;;;5147811;27;20030;-78
2021/04/29 07:56:39;;;;;;;9.50;3.83;;;;;;;;;;5147176;27;20027;-76
2021/04/29 08:00:16;;;;;;;11.85;4.43;;;;;;;;;;5105079;27;20317;-78
2021/04/29 08:02:43;;;;;;;5.70;3.55;;;;;;;;;;5097892;28;20016;-75
2021/04/29 08:05:25;;;;;;;11.45;4.30;;;;;;;;;;5107089;27;20388;-77
2021/04/29 08:07:52;;;;;;;18.20;6.07;;;;;;;;;;5103657;28;20031;-77
2021/04/29 08:10:18;;;;;;;8.75;3.63;;;;;;;;;;5107483;28;20020;-76
2021/04/29 08:12:45;;;;;;;9.20;4.40;;;;;;;;;;5107383;28;20612;-75
2021/04/29 08:15:25;;;;;;;12.55;4.22;;;;;;;;;;5107682;27;20385;-76
2021/04/29 08:18:48;;;;;;;10.18;4.22;;;;;;;;;;5068876;28;20446;-76
2021/04/29 08:23:18;;;;;;;13.90;4.55;;;;;;;;;;5104581;27;20373;-81
2021/04/29 08:25:45;;;;;;;10.25;4.47;;;;;;;;;;5111040;28;20099;-84
2021/04/29 08:28:11;;;;;;;8.93;4.32;;;;;;;;;;5108141;28;20044;-83
2021/04/29 08:30:37;;;;;;;8.52;4.78;;;;;;;;;;5111959;28;20060;-85
2021/04/29 08:33:04;;;;;;;12.63;5.18;;;;;;;;;;5110498;28;20073;-81
2021/04/29 08:35:31;;;;;;;8.55;4.38;;;;;;;;;;5110810;28;20055;-81
2021/04/29 08:37:57;;;;;;;12.40;4.57;;;;;;;;;;5103915;28;20562;-82
2021/04/29 08:40:25;;;;;;;9.95;4.10;;;;;;;;;;5111275;28;20539;-86
2021/04/29 08:43:40;;;;;;;9.35;4.40;;;;;;;;;;5111493;27;20400;-79
2021/04/29 08:46:07;;;;;;;15.48;4.78;;;;;;;;;;5112642;28;20495;-84
2021/04/29 08:48:33;;;;;;;11.30;5.07;;;;;;;;;;5114887;28;20030;-82
2021/04/29 08:51:01;;;;;;;14.35;4.40;;;;;;;;;;5115831;28;20506;-81
2021/04/29 08:53:27;;;;;;;12.98;4.10;;;;;;;;;;5112166;28;20032;-85
2021/04/29 08:55:54;;;;;;;9.43;3.95;;;;;;;;;;5115067;28;20103;-87
2021/04/29 08:58:21;;;;;;;11.73;4.70;;;;;;;;;;5113361;28;20080;-83
2021/04/29 09:04:12;;;;;;;11.43;3.97;;;;;;;;;;5131688;27;20379;-82
2021/04/29 09:06:39;;;;;;;10.48;4.38;;;;;;;;;;5129918;28;20024;-83
2021/04/29 09:09:06;;;;;;;14.63;4.93;;;;;;;;;;5135291;27;20020;-87
2021/04/29 09:11:32;;;;;;;14.63;4.85;;;;;;;;;;5134070;27;20475;-84
2021/04/29 09:14:00;;;;;;;9.60;4.40;;;;;;;;;;5135876;28;20028;-86
2021/04/29 09:18:48;;;;;;;12.32;4.60;;;;;;;;;;5072117;28;20433;-85
2021/04/29 09:21:14;;;;;;;12.13;4.75;;;;;;;;;;5071980;28;20056;-83
2021/04/29 09:23:41;;;;;;;7.47;3.40;;;;;;;;;;5072279;28;20043;-79
2021/04/29 09:26:10;;;;;;;11.55;4.07;;;;;;;;;;5069783;28;20111;-82
2021/04/29 09:28:50;;;;;;;11.60;3.88;;;;;;;;;;5071750;28;20021;-86
2021/04/29 09:31:17;;;;;;;8.45;3.70;;;;;;;;;;5073000;28;20037;-85
2021/04/29 09:33:48;;;;;;;10.88;4.15;;;;;;;;;;5073416;28;20094;-84
2021/04/29 09:36:24;;;;;;;11.00;3.60;;;;;;;;;;5073847;28;20031;-85
2021/04/29 09:39:01;;;;;;;7.05;3.63;;;;;;;;;;5065713;28;20112;-77
2021/04/29 09:41:35;;;;;;;12.02;3.92;;;;;;;;;;5067076;28;20412;-79
2021/04/29 09:44:21;;;;;;;8.20;3.60;;;;;;;;;;5064561;28;20059;-79
2021/04/29 09:46:49;;;;;;;9.15;3.90;;;;;;;;;;5059415;28;20036;-78
2021/04/29 09:49:39;;;;;;;12.00;4.45;;;;;;;;;;5061239;28;20380;-80
2021/04/29 09:52:19;;;;;;;11.20;3.47;;;;;;;;;;5062779;28;20029;-79
2021/04/29 09:54:46;;;;;;;12.52;5.55;;;;;;;;;;5066300;28;20438;-78
2021/04/29 09:57:16;;;;;;;11.98;4.30;;;;;;;;;;5067862;28;20477;-81
2021/04/29 10:01:15;;;;;;;8.43;2.95;;;;;;;;;;5130209;27;21003;-80
2021/04/29 10:03:42;;;;;;;12.00;3.47;;;;;;;;;;5130967;27;20031;-78
2021/04/29 10:06:14;;;;;;;10.85;3.35;;;;;;;;;;5129130;28;20015;-80
2021/04/29 10:08:41;;;;;;;7.80;2.90;;;;;;;;;;5145054;27;20019;-78
2021/04/29 10:11:08;;;;;;;7.07;3.13;;;;;;;;;;5130159;28;20023;-79
2021/04/29 10:13:37;;;;;;;9.32;3.15;;;;;;;;;;5145344;27;20043;-79
2021/04/29 10:16:04;;;;;;;10.30;3.50;;;;;;;;;;5127336;27;20023;-79
2021/04/29 10:18:30;;;;;;;9.07;2.80;;;;;;;;;;5126062;28;20036;-81
2021/04/29 10:20:58;;;;;;;10.48;2.60;;;;;;;;;;5127183;28;20035;-80
2021/04/29 10:23:24;;;;;;;11.57;3.15;;;;;;;;;;5128672;28;20026;-78
2021/04/29 10:25:54;;;;;;;9.35;2.38;;;;;;;;;;5120434;28;20040;-80
2021/04/29 10:28:30;;;;;;;9.00;2.53;;;;;;;;;;5126536;28;20471;-78
2021/04/29 10:30:57;;;;;;;8.00;2.92;;;;;;;;;;5130380;28;20024;-80
2021/04/29 10:33:23;;;;;;;7.97;2.70;;;;;;;;;;5124556;28;20026;-79
2021/04/29 10:35:49;;;;;;;7.93;3.00;;;;;;;;;;5127315;28;20349;-76
2021/04/29 10:38:23;;;;;;;8.10;2.42;;;;;;;;;;5130805;28;20026;-81
2021/04/29 10:40:49;;;;;;;5.85;1.73;;;;;;;;;;5125523;27;20042;-77
2021/04/29 10:43:27;;;;;;;8.77;2.45;;;;;;;;;;5146412;27;20371;-81
2021/04/29 10:45:54;;;;;;;6.47;2.28;;;;;;;;;;5150709;27;20034;-79
2021/04/29 10:48:20;;;;;;;5.40;1.92;;;;;;;;;;5150998;27;20022;-80
2021/04/29 10:50:51;;;;;;;7.03;2.40;;;;;;;;;;5157974;27;20019;-77
2021/04/29 10:53:32;;;;;;;8.88;2.83;;;;;;;;;;5158730;27;20023;-80
2021/04/29 10:56:04;;;;;;;10.35;1.77;;;;;;;;;;5157579;27;20080;-80
2021/04/29 10:58:30;;;;;;;6.60;1.73;;;;;;;;;;5150730;27;20386;-81
2021/04/29 11:01:01;;;;;;;10.73;1.90;;;;;;;;;;5149433;27;20403;-80
2021/04/29 11:03:29;;;;;;;8.80;2.05;;;;;;;;;;5151093;27;20019;-81
2021/04/29 11:06:05;;;;;;;7.63;2.25;;;;;;;;;;5148704;27;20066;-81
2021/04/29 11:08:35;;;;;;;9.98;2.80;;;;;;;;;;5147203;27;20088;-80
2021/04/29 11:11:02;;;;;;;9.38;2.67;;;;;;;;;;5141036;27;20510;-80
2021/04/29 11:13:29;;;;;;;5.07;1.85;;;;;;;;;;5132531;27;20023;-80
2021/04/29 11:15:59;;;;;;;6.97;2.00;;;;;;;;;;5132947;27;20027;-80
2021/04/29 11:18:25;;;;;;;7.97;2.45;;;;;;;;;;5135362;27;20020;-80
2021/04/29 11:20:53;;;;;;;9.77;1.58;;;;;;;;;;5136236;27;20160;-80
2021/04/29 11:23:21;;;;;;;9.82;2.05;;;;;;;;;;5136926;27;20034;-82
2021/04/29 11:25:48;;;;;;;8.98;2.13;;;;;;;;;;5135414;27;20475;-80
2021/04/29 11:28:15;;;;;;;12.35;2.45;;;;;;;;;;5136848;27;20029;-81
2021/04/29 11:30:42;;;;;;;7.07;2.47;;;;;;;;;;5136745;27;20617;-81
2021/04/29 11:33:14;;;;;;;6.10;1.60;;;;;;;;;;5134790;27;20080;-80
2021/04/29 11:35:42;;;;;;;7.80;2.55;;;;;;;;;;5121131;28;20155;-80
2021/04/29 11:38:10;;;;;;;5.13;2.08;;;;;;;;;;5119364;27;20016;-81
2021/04/29 11:40:36;;;;;;;11.13;2.45;;;;;;;;;;5122583;28;20035;-79
2021/04/29 11:43:04;;;;;;;10.43;2.17;;;;;;;;;;5118273;28;20372;-80
2021/04/29 11:45:37;;;;;;;9.07;2.20;;;;;;;;;;5115521;28;20028;-80
2021/04/29 11:48:07;;;;;;;6.53;1.90;;;;;;;;;;5114830;28;20091;-79
2021/04/29 11:50:35;;;;;;;5.70;2.13;;;;;;;;;;5115555;28;20103;-79
2021/04/29 11:53:04;;;;;;;5.95;2.10;;;;;;;;;;5115114;28;20027;-80
2021/04/29 11:55:31;;;;;;;9.30;2.53;;;;;;;;;;5115752;28;20020;-82
2021/04/29 11:58:05;;;;;;;7.45;2.20;;;;;;;;;;5115281;28;20062;-81
2021/04/29 12:00:32;;;;;;;12.27;2.72;;;;;;;;;;5112096;28;20372;-81
2021/04/29 12:02:59;;;;;;;9.70;1.83;;;;;;;;;;5115114;28;20535;-81
2021/04/29 12:05:39;;;;;;;12.77;3.33;;;;;;;;;;5115490;28;20479;-82
2021/04/29 12:08:08;;;;;;;13.25;3.08;;;;;;;;;;5114999;28;20556;-82
2021/04/29 12:10:45;;;;;;;6.53;2.53;;;;;;;;;;5114187;28;20024;-82
2021/04/29 12:13:12;;;;;;;7.00;2.30;;;;;;;;;;5115638;28;20059;-82
2021/04/29 12:15:38;;;;;;;6.28;2.13;;;;;;;;;;5113808;28;20531;-81
2021/04/29 12:18:05;;;;;;;6.65;2.45;;;;;;;;;;5115741;28;20059;-82
2021/04/29 12:20:32;;;;;;;7.78;2.53;;;;;;;;;;5115438;28;20061;-82
2021/04/29 12:22:58;;;;;;;8.70;2.33;;;;;;;;;;5113822;28;20020;-81
2021/04/29 12:25:24;;;;;;;14.88;3.10;;;;;;;;;;5115144;28;20030;-81
2021/04/29 12:27:50;;;;;;;6.78;2.17;;;;;;;;;;5115140;28;20027;-81
2021/04/29 12:30:17;;;;;;;11.40;2.42;;;;;;;;;;5113588;28;20546;-83
2021/04/29 12:32:45;;;;;;;9.95;2.80;;;;;;;;;;5114996;28;20016;-82
2021/04/29 12:35:12;;;;;;;7.63;2.38;;;;;;;;;;5114558;28;20388;-82
2021/04/29 12:37:50;;;;;;;7.65;2.45;;;;;;;;;;5115324;28;20091;-82
2021/04/29 12:40:29;;;;;;;8.23;2.00;;;;;;;;;;5114700;28;20040;-83
2021/04/29 12:43:14;;;;;;;6.75;2.40;;;;;;;;;;5114621;28;20030;-81
2021/04/29 12:45:44;;;;;;;7.85;2.42;;;;;;;;;;5114530;28;20027;-81
2021/04/29 12:48:11;;;;;;;8.43;2.28;;;;;;;;;;5114628;27;20537;-81
2021/04/29 12:50:37;;;;;;;10.60;2.97;;;;;;;;;;5114190;28;20444;-82
2021/04/29 12:53:03;;;;;;;7.10;2.42;;;;;;;;;;5114345;28;20080;-81
2021/04/29 12:55:29;;;;;;;6.88;2.25;;;;;;;;;;5114672;28;20020;-83
2021/04/29 12:58:08;;;;;;;10.95;2.13;;;;;;;;;;5112688;28;20098;-81
2021/04/29 13:00:34;;;;;;;8.73;2.55;;;;;;;;;;5113949;28;20036;-81
2021/04/29 13:03:03;;;;;;;6.43;2.17;;;;;;;;;;5113055;28;20024;-81
2021/04/29 13:05:30;;;;;;;6.03;1.90;;;;;;;;;;5114295;28;20019;-82
2021/04/29 13:08:00;;;;;;;7.38;1.92;;;;;;;;;;5114741;27;20040;-81
2021/04/29 13:10:26;;;;;;;7.55;2.10;;;;;;;;;;5113040;28;20361;-81
2021/04/29 13:12:52;;;;;;;6.40;2.20;;;;;;;;;;5119485;28;20020;-81
2021/04/29 13:15:18;;;;;;;6.65;2.53;;;;;;;;;;5114299;28;20031;-81
2021/04/29 13:17:46;;;;;;;11.63;2.65;;;;;;;;;;5113546;28;20404;-80
2021/04/29 13:20:13;;;;;;;7.05;2.33;;;;;;;;;;5112267;28;20035;-81
2021/04/29 13:22:43;;;;;;;5.88;2.17;;;;;;;;;;5113713;28;20012;-81
2021/04/29 13:25:12;;;;;;;6.13;1.88;;;;;;;;;;5113275;28;20072;-81
2021/04/29 13:27:38;;;;;;;6.22;2.08;;;;;;;;;;5113495;28;20019;-80
2021/04/29 13:30:05;;;;;;;6.40;1.85;;;;;;;;;;5113723;28;20479;-81
2021/04/29 13:32:32;;;;;;;5.63;1.48;;;;;;;;;;5112175;28;20024;-81
2021/04/29 13:34:59;;;;;;;6.72;2.10;;;;;;;;;;5113827;28;20024;-80
2021/04/29 13:37:25;;;;;;;7.38;2.03;;;;;;;;;;5113939;28;20360;-81
2021/04/29 13:39:51;;;;;;;5.95;1.70;;;;;;;;;;5112642;28;20399;-80
2021/04/29 13:42:17;;;;;;;9.35;2.75;;;;;;;;;;5113934;28;20023;-81
2021/04/29 13:44:45;;;;;;;3.65;1.30;;;;;;;;;;5112384;28;20023;-79
2021/04/29 13:47:11;;;;;;;5.93;2.05;;;;;;;;;;5113306;28;20027;-81
2021/04/29 13:49:37;;;;;;;8.50;2.45;;;;;;;;;;5113411;28;20490;-81
2021/04/29 13:52:04;;;;;;;9.70;3.08;;;;;;;;;;5113784;28;20038;-82
2021/04/29 13:54:30;;;;;;;12.15;2.45;;;;;;;;;;5113694;28;20130;-82
2021/04/29 13:56:57;;;;;;;6.43;2.22;;;;;;;;;;5113461;28;20027;-81
2021/04/29 13:59:23;;;;;;;6.85;2.13;;;;;;;;;;5112780;28;20035;-81
2021/04/29 14:01:50;;;;;;;10.38;2.53;;;;;;;;;;5113348;28;20054;-80
2021/04/29 14:04:16;;;;;;;5.68;2.10;;;;;;;;;;5112288;28;20035;-81
2021/04/29 14:06:44;;;;;;;3.78;1.58;;;;;;;;;;5113028;28;20030;-80
2021/04/29 14:09:10;;;;;;;5.68;1.88;;;;;;;;;;5114206;28;20379;-80
2021/04/29 14:11:37;;;;;;;7.63;2.17;;;;;;;;;;5113507;28;20016;-79
2021/04/29 14:14:03;;;;;;;5.45;1.98;;;;;;;;;;5112277;28;20118;-80
2021/04/29 14:16:29;;;;;;;7.95;1.50;;;;;;;;;;5113869;28;20410;-80
2021/04/29 14:18:56;;;;;;;5.72;1.88;;;;;;;;;;5113507;28;20024;-80
2021/04/29 14:21:22;;;;;;;6.88;1.88;;;;;;;;;;5112800;28;20099;-80
2021/04/29 14:23:48;;;;;;;6.57;2.40;;;;;;;;;;5113093;28;20023;-80
2021/04/29 14:26:15;;;;;;;11.27;2.35;;;;;;;;;;5111733;28;20023;-80
2021/04/29 14:28:43;;;;;;;5.85;2.03;;;;;;;;;;5112653;28;20615;-79
2021/04/29 14:31:09;;;;;;;6.65;1.80;;;;;;;;;;5112760;28;20016;-80
2021/04/29 14:33:35;;;;;;;8.68;1.92;;;;;;;;;;5113113;28;20023;-80
2021/04/29 14:36:04;;;;;;;5.43;1.58;;;;;;;;;;5112693;28;20056;-80
2021/04/29 14:38:30;;;;;;;8.63;3.55;;;;;;;;;;5112821;28;20506;-80
2021/04/29 14:40:57;;;;;;;9.82;1.80;;;;;;;;;;5112676;28;20035;-79
2021/04/29 14:43:23;;;;;;;6.50;1.88;;;;;;;;;;5112386;28;20149;-79
2021/04/29 14:45:49;;;;;;;4.85;1.77;;;;;;;;;;5112907;28;20027;-78
2021/04/29 14:48:15;;;;;;;8.45;1.90;;;;;;;;;;5116684;28;20020;-79
2021/04/29 14:50:41;;;;;;;5.68;1.75;;;;;;;;;;5115118;28;20023;-80
2021/04/29 14:53:09;;;;;;;8.05;1.70;;;;;;;;;;5116568;28;20024;-81
2021/04/29 14:55:35;;;;;;;6.47;2.08;;;;;;;;;;5114888;28;20024;-81
2021/04/29 14:58:02;;;;;;;5.43;1.50;;;;;;;;;;5116682;28;20043;-80
2021/04/29 15:00:32;;;;;;;10.52;2.35;;;;;;;;;;5116103;28;20043;-79
2021/04/29 15:02:58;;;;;;;7.28;2.15;;;;;;;;;;5116225;27;20040;-79
2021/04/29 15:05:25;;;;;;;5.50;1.85;;;;;;;;;;5116088;28;20024;-79
2021/04/29 15:07:51;;;;;;;10.15;1.63;;;;;;;;;;5114957;28;20494;-79
2021/04/29 15:10:17;;;;;;;6.80;1.90;;;;;;;;;;5115969;28;20406;-79
2021/04/29 15:12:43;;;;;;;7.18;2.17;;;;;;;;;;5116854;28;20046;-77
2021/04/29 15:15:12;;;;;;;8.23;2.58;;;;;;;;;;5116159;28;20057;-79
2021/04/29 15:17:38;;;;;;;7.95;1.92;;;;;;;;;;5115505;28;20028;-78
2021/04/29 15:20:05;;;;;;;8.38;1.98;;;;;;;;;;5114584;28;20027;-79
2021/04/29 15:22:31;;;;;;;8.27;2.30;;;;;;;;;;5114518;28;20026;-79
2021/04/29 15:24:57;;;;;;;6.65;2.55;;;;;;;;;;5114214;28;20035;-79
2021/04/29 15:27:23;;;;;;;8.45;2.17;;;;;;;;;;5114467;28;20501;-79
2021/04/29 15:29:50;;;;;;;6.00;1.55;;;;;;;;;;5116081;28;20106;-79
2021/04/29 15:32:16;;;;;;;7.40;1.95;;;;;;;;;;5114366;28;20070;-80